Time;durP1;ratioP1;P1;durP2;ratioP2;P2;SDS_P1;SDS_P2;PMS_P1;PMS_P2;Temp;Humidity;BMP_temperature;BMP_pressure;BME280_temperature;BME280_humidity;BME280_pressure;Samples;Min_cycle;Max_cycle;Signal;HPM_P1;HPM_P2
2022/07/19 00:02:07;;;;;;;6.40;5.90;;;;;;;;;;5057613;28;20017;-92
2022/07/19 00:04:34;;;;;;;6.95;6.28;;;24.60;54.80;;;;;;5044388;28;20029;-93
2022/07/19 00:07:00;;;;;;;8.63;6.43;;;;;;;;;;5052840;28;20407;-92
2022/07/19 00:09:26;;;;;;;6.70;6.20;;;;;;;;;;5060622;28;20036;-93
2022/07/19 00:11:53;;;;;;;6.97;6.47;;;;;;;;;;5044120;28;20404;-95
2022/07/19 00:14:19;;;;;;;7.35;6.63;;;;;;;;;;5053201;28;20049;-94
2022/07/19 00:19:21;;;;;;;7.90;6.88;;;;;;;;;;5672875;22;20605;-94
2022/07/19 00:21:47;;;;;;;7.55;7.03;;;;;;;;;;5060573;23;20045;-93
2022/07/19 00:24:13;;;;;;;7.90;7.38;;;;;;;;;;5028345;28;20387;-94
2022/07/19 00:26:39;;;;;;;11.63;8.07;;;;;;;;;;5015769;28;20021;-92
2022/07/19 00:29:05;;;;;;;8.48;7.97;;;;;;;;;;5023411;28;20019;-94
2022/07/19 00:31:31;;;;;;;9.77;8.98;;;;;;;;;;5023662;28;20030;-93
2022/07/19 00:33:57;;;;;;;11.55;8.18;;;;;;;;;;5015492;28;20022;-92
2022/07/19 00:36:23;;;;;;;10.38;8.07;;;;;;;;;;5030597;28;20041;-93
2022/07/19 00:38:49;;;;;;;9.95;9.05;;;;;;;;;;5004680;28;20024;-92
2022/07/19 00:41:15;;;;;;;8.95;8.45;;;;;;;;;;5029948;28;20025;-94
2022/07/19 00:43:41;;;;;;;26.27;9.05;;;;;;;;;;5018536;28;20037;-93
2022/07/19 00:46:18;;;;;;;10.60;9.70;;;24.50;55.20;;;;;;5032073;28;20022;-93
2022/07/19 00:48:44;;;;;;;;;;;24.40;55.20;;;;;;5027188;28;20280;-93
2022/07/19 00:51:11;;;;;;;9.23;7.68;;;24.40;55.70;;;;;;5013561;28;19905;-93
2022/07/19 00:53:38;;;;;;;8.43;7.72;;;24.40;55.30;;;;;;5023042;28;20033;-93
2022/07/19 00:56:06;;;;;;;9.27;8.52;;;24.40;54.70;;;;;;5020362;28;20075;-91
2022/07/19 00:58:33;;;;;;;8.75;7.88;;;;;;;;;;5025829;28;20026;-93
2022/07/19 01:00:59;;;;;;;17.88;8.48;;;;;;;;;;5015307;28;20021;-93
2022/07/19 01:03:26;;;;;;;8.40;7.90;;;;;;;;;;5010325;28;20033;-93
2022/07/19 01:05:52;;;;;;;9.48;8.60;;;;;;;;;;5032587;28;20060;-92
2022/07/19 01:08:18;;;;;;;9.60;8.63;;;;;;;;;;5032959;28;20507;-92
2022/07/19 01:10:44;;;;;;;10.65;8.63;;;;;;;;;;5002229;28;20025;-93
2022/07/19 01:13:13;;;;;;;8.70;7.93;;;24.20;54.90;;;;;;5032749;28;20053;-93
2022/07/19 01:15:41;;;;;;;9.25;8.65;;;24.30;54.90;;;;;;5013402;28;20037;-92
2022/07/19 01:18:07;;;;;;;8.70;7.95;;;;;;;;;;5025187;28;20503;-95
2022/07/19 01:20:33;;;;;;;12.30;9.50;;;;;;;;;;5027327;28;20537;-92
2022/07/19 01:22:59;;;;;;;10.13;9.02;;;;;;;;;;5031843;28;20025;-93
2022/07/19 01:25:27;;;;;;;8.00;7.43;;;24.20;55.60;;;;;;5024656;28;20072;-94
2022/07/19 01:27:54;;;;;;;9.55;8.70;;;;;;;;;;5043244;28;20029;-93
2022/07/19 01:30:21;;;;;;;8.68;8.07;;;;;;;;;;5045463;28;20112;-93
2022/07/19 01:32:47;;;;;;;8.55;7.82;;;24.10;56.10;;;;;;5034694;28;20030;-95
2022/07/19 01:35:13;;;;;;;13.30;9.03;;;;;;;;;;5015412;28;20026;-93
2022/07/19 01:37:40;;;;;;;9.00;8.43;;;;;;;;;;5022626;28;20022;-93
2022/07/19 01:40:08;;;;;;;8.82;8.15;;;23.90;56.30;;;;;;5036643;28;20022;-93
2022/07/19 01:42:34;;;;;;;10.32;8.95;;;;;;;;;;5035272;28;20108;-93
2022/07/19 01:45:00;;;;;;;9.98;9.07;;;;;;;;;;5021283;28;20116;-92
2022/07/19 01:47:26;;;;;;;8.57;7.70;;;;;;;;;;5036360;28;20047;-92
2022/07/19 01:49:52;;;;;;;9.90;9.25;;;;;;;;;;5005449;28;20092;-93
2022/07/19 01:52:18;;;;;;;8.10;7.60;;;;;;;;;;5029167;28;20059;-93
2022/07/19 01:54:44;;;;;;;8.02;7.32;;;;;;;;;;5021918;28;20102;-93
2022/07/19 01:57:10;;;;;;;9.90;7.47;;;;;;;;;;5029349;28;20076;-95
2022/07/19 01:59:36;;;;;;;10.18;9.10;;;23.60;57.50;;;;;;5006069;28;20025;-91
2022/07/19 02:02:03;;;;;;;8.05;7.40;;;23.50;57.60;;;;;;5022980;28;20067;-92
2022/07/19 02:04:29;;;;;;;9.77;7.68;;;;;;;;;;5022232;28;20057;-92
2022/07/19 02:06:55;;;;;;;30.33;7.30;;;;;;;;;;5034740;28;20521;-94
2022/07/19 02:09:21;;;;;;;11.80;7.75;;;;;;;;;;5027791;28;20042;-93
2022/07/19 02:11:47;;;;;;;9.80;8.98;;;;;;;;;;5035610;28;20471;-93
2022/07/19 02:14:13;;;;;;;7.95;7.32;;;;;;;;;;5035031;28;20025;-94
2022/07/19 02:16:39;;;;;;;8.15;7.50;;;;;;;;;;5018186;28;20021;-93
2022/07/19 02:19:06;;;;;;;12.13;7.32;;;23.60;58.10;;;;;;5033491;28;20030;-94
2022/07/19 02:21:33;;;;;;;8.40;7.90;;;23.60;58.30;;;;;;5028752;28;20050;-93
2022/07/19 02:23:59;;;;;;;7.00;6.40;;;;;;;;;;5020191;28;20085;-94
2022/07/19 02:26:25;;;;;;;11.68;7.22;;;;;;;;;;5034216;28;20022;-93
2022/07/19 02:28:51;;;;;;;8.30;7.45;;;;;;;;;;5027555;28;20029;-92
2022/07/19 02:31:17;;;;;;;8.57;7.88;;;;;;;;;;5023519;28;20045;-93
2022/07/19 02:33:43;;;;;;;8.35;7.82;;;;;;;;;;5033977;28;20041;-92
2022/07/19 02:36:09;;;;;;;8.40;7.45;;;;;;;;;;5026257;28;20101;-93
2022/07/19 02:38:35;;;;;;;7.85;6.93;;;;;;;;;;5017676;28;20106;-92
2022/07/19 02:41:02;;;;;;;10.10;9.10;;;;;;;;;;5017211;28;20026;-95
2022/07/19 02:43:28;;;;;;;7.15;6.85;;;;;;;;;;5027570;28;20053;-94
2022/07/19 02:45:54;;;;;;;7.18;6.57;;;;;;;;;;5035919;28;20021;-95
2022/07/19 02:48:20;;;;;;;8.10;7.53;;;;;;;;;;5033479;28;20032;-94
2022/07/19 02:50:46;;;;;;;7.43;6.93;;;;;;;;;;5034097;28;20476;-95
2022/07/19 02:53:12;;;;;;;8.07;7.38;;;;;;;;;;5017887;28;20021;-94
2022/07/19 02:55:38;;;;;;;11.55;7.88;;;;;;;;;;5032245;28;20021;-94
2022/07/19 02:58:04;;;;;;;9.57;8.43;;;;;;;;;;5011834;28;20068;-93
2022/07/19 03:00:30;;;;;;;8.63;7.93;;;;;;;;;;5034853;28;20029;-93
2022/07/19 03:03:43;;;;;;;8.20;7.60;;;23.40;59.50;;;;;;5027047;28;20075;-93
2022/07/19 03:05:44;;;;;;;;;;;23.40;59.30;;;;;;5033240;28;20029;-93
2022/07/19 03:08:10;;;;;;;8.32;7.70;;;;;;;;;;5034783;28;19988;-92
2022/07/19 03:10:36;;;;;;;8.32;7.53;;;;;;;;;;5033267;28;20025;-93
2022/07/19 03:13:02;;;;;;;8.68;7.45;;;;;;;;;;5032055;28;20045;-93
2022/07/19 03:15:28;;;;;;;10.35;9.40;;;;;;;;;;5023723;28;20022;-94
2022/07/19 03:17:54;;;;;;;8.23;7.70;;;;;;;;;;5020678;28;20036;-93
2022/07/19 03:20:20;;;;;;;9.10;8.00;;;;;;;;;;5025291;28;20552;-93
2022/07/19 03:22:46;;;;;;;8.40;7.90;;;;;;;;;;5017162;28;20033;-93
2022/07/19 03:25:12;;;;;;;13.18;8.05;;;;;;;;;;5025437;28;20064;-95
2022/07/19 03:27:38;;;;;;;8.48;7.65;;;;;;;;;;5028486;28;20109;-91
2022/07/19 03:30:04;;;;;;;7.97;7.20;;;;;;;;;;5034283;28;20403;-92
2022/07/19 03:32:30;;;;;;;9.20;8.45;;;;;;;;;;5017188;28;20602;-93
2022/07/19 03:34:56;;;;;;;7.97;7.57;;;;;;;;;;5031618;28;20032;-93
2022/07/19 03:37:22;;;;;;;9.77;9.18;;;;;;;;;;5036622;28;20089;-92
2022/07/19 03:39:48;;;;;;;7.57;7.03;;;;;;;;;;5029306;28;20037;-92
2022/07/19 03:42:14;;;;;;;8.73;8.02;;;;;;;;;;5033590;28;20017;-94
2022/07/19 03:44:40;;;;;;;9.73;7.75;;;;;;;;;;5033767;28;20476;-95
2022/07/19 03:47:06;;;;;;;10.52;8.95;;;;;;;;;;5030283;28;20026;-93
2022/07/19 03:49:32;;;;;;;8.05;7.57;;;;;;;;;;5023183;28;20029;-93
2022/07/19 03:51:58;;;;;;;9.70;7.75;;;;;;;;;;5018493;28;20022;-93
2022/07/19 03:54:24;;;;;;;9.07;8.38;;;;;;;;;;5003934;28;20022;-92
2022/07/19 03:56:50;;;;;;;12.65;7.68;;;;;;;;;;5012038;28;20084;-92
2022/07/19 03:59:16;;;;;;;8.18;7.68;;;;;;;;;;5022834;28;20048;-92
2022/07/19 04:01:42;;;;;;;10.70;9.40;;;;;;;;;;5014435;28;20031;-93
2022/07/19 04:04:08;;;;;;;7.60;7.18;;;;;;;;;;5033531;28;20041;-93
2022/07/19 04:06:34;;;;;;;8.55;7.88;;;;;;;;;;5012339;28;20048;-92
2022/07/19 04:09:00;;;;;;;9.35;8.55;;;;;;;;;;5028163;28;20034;-94
2022/07/19 04:11:26;;;;;;;8.55;7.95;;;;;;;;;;5017110;28;20029;-93
2022/07/19 04:13:52;;;;;;;10.65;8.88;;;;;;;;;;5031135;28;20060;-92
2022/07/19 04:16:18;;;;;;;9.30;8.60;;;;;;;;;;5026884;28;20025;-92
2022/07/19 04:18:44;;;;;;;10.50;9.48;;;;;;;;;;5016157;28;20033;-93
2022/07/19 04:21:10;;;;;;;9.88;9.18;;;;;;;;;;5032146;28;20065;-94
2022/07/19 04:23:36;;;;;;;9.52;8.68;;;;;;;;;;5028346;28;20554;-91
2022/07/19 04:26:02;;;;;;;9.20;8.30;;;;;;;;;;5016736;28;20040;-92
2022/07/19 04:28:28;;;;;;;9.68;8.65;;;;;;;;;;5032006;28;20156;-92
2022/07/19 04:30:54;;;;;;;10.98;8.98;;;;;;;;;;5025024;28;20096;-92
2022/07/19 04:33:20;;;;;;;8.98;8.30;;;;;;;;;;5021290;28;20032;-94
2022/07/19 04:35:46;;;;;;;9.23;8.32;;;;;;;;;;5029089;28;20029;-94
2022/07/19 04:38:12;;;;;;;9.52;8.70;;;;;;;;;;5022868;28;20108;-92
2022/07/19 04:40:39;;;;;;;8.82;8.20;;;23.00;61.30;;;;;;5030056;28;20034;-92
2022/07/19 04:43:05;;;;;;;11.18;8.88;;;;;;;;;;5032360;28;20549;-92
2022/07/19 04:45:31;;;;;;;9.90;8.98;;;;;;;;;;5028912;28;20030;-93
2022/07/19 04:47:57;;;;;;;9.23;8.55;;;;;;;;;;5022802;28;20049;-92
2022/07/19 04:50:23;;;;;;;10.75;9.10;;;;;;;;;;5030983;28;20104;-94
2022/07/19 04:52:49;;;;;;;8.90;8.13;;;;;;;;;;5023395;28;20488;-95
2022/07/19 04:55:15;;;;;;;9.20;8.50;;;;;;;;;;5010369;28;20790;-92
2022/07/19 04:57:41;;;;;;;10.63;9.15;;;;;;;;;;5024615;28;20080;-93
2022/07/19 05:00:09;;;;;;;8.23;7.72;;;23.20;61.40;;;;;;5032826;28;20104;-92
2022/07/19 05:02:38;;;;;;;8.38;7.57;;;;;;;;;;5032699;28;20496;-92
2022/07/19 05:05:05;;;;;;;9.18;8.20;;;;;;;;;;5014560;28;20080;-93
2022/07/19 05:07:31;;;;;;;7.88;7.30;;;;;;;;;;5032688;28;20040;-93
2022/07/19 05:09:57;;;;;;;9.27;8.63;;;;;;;;;;5017780;28;20037;-92
2022/07/19 05:12:23;;;;;;;7.22;6.65;;;;;;;;;;5031914;28;20025;-92
2022/07/19 05:14:49;;;;;;;9.38;7.38;;;;;;;;;;5032534;28;20030;-93
2022/07/19 05:17:15;;;;;;;9.90;9.10;;;23.60;81.50;;;;;;5032986;28;20498;-93
2022/07/19 05:19:41;;;;;;;7.90;7.32;;;;;;;;;;5016466;28;20026;-94
2022/07/19 05:22:07;;;;;;;7.40;6.85;;;;;;;;;;5013793;28;20025;-92
2022/07/19 05:24:33;;;;;;;8.68;7.93;;;;;;;;;;5025605;28;20041;-94
2022/07/19 05:27:00;;;;;;;12.27;7.95;;;;;;;;;;5031656;28;20053;-93
2022/07/19 05:29:26;;;;;;;8.52;7.53;;;;;;;;;;5027215;28;20442;-93
2022/07/19 05:31:52;;;;;;;8.30;7.60;;;;;;;;;;5021478;28;20030;-92
2022/07/19 05:34:18;;;;;;;8.43;7.68;;;;;;;;;;5015577;28;20080;-93
2022/07/19 05:36:44;;;;;;;9.77;7.97;;;;;;;;;;5026674;28;20510;-94
2022/07/19 05:39:10;;;;;;;8.55;7.75;;;;;;;;;;5032632;28;20040;-93
2022/07/19 05:41:36;;;;;;;8.13;7.38;;;;;;;;;;5032464;28;20220;-94
2022/07/19 05:44:02;;;;;;;12.23;8.20;;;;;;;;;;5031716;28;20069;-92
2022/07/19 05:46:28;;;;;;;8.23;7.63;;;;;;;;;;5032511;28;20032;-93
2022/07/19 05:48:54;;;;;;;8.10;7.47;;;;;;;;;;5027136;28;20022;-92
2022/07/19 05:51:20;;;;;;;7.72;6.82;;;;;;;;;;5013141;28;20077;-81
2022/07/19 05:53:46;;;;;;;7.53;6.93;;;;;;;;;;5026157;28;20049;-80
2022/07/19 05:56:12;;;;;;;10.65;7.35;;;;;;;;;;5017599;28;20022;-80
2022/07/19 05:58:38;;;;;;;7.47;6.95;;;;;;;;;;5013317;28;20045;-80
2022/07/19 06:01:22;;;;;;;9.43;7.03;;;;;;;;;;5023654;28;20029;-80
2022/07/19 06:03:49;;;;;;;7.68;6.97;;;;;;;;;;5020881;28;20025;-80
2022/07/19 06:06:15;;;;;;;7.70;7.00;;;;;;;;;;5023172;28;20025;-80
2022/07/19 06:08:41;;;;;;;13.88;7.40;;;;;;;;;;5025006;28;20052;-80
2022/07/19 06:11:07;;;;;;;7.63;7.03;;;;;;;;;;5029384;28;20171;-81
2022/07/19 06:13:34;;;;;;;8.02;7.32;;;;;;;;;;5029781;28;20116;-80
2022/07/19 06:16:00;;;;;;;9.63;6.95;;;;;;;;;;5031164;28;20052;-92
2022/07/19 06:18:26;;;;;;;7.40;6.53;;;;;;;;;;5023256;28;20056;-93
2022/07/19 06:20:52;;;;;;;8.30;6.82;;;;;;;;;;5012901;28;20099;-93
2022/07/19 06:23:18;;;;;;;8.90;7.25;;;;;;;;;;5005983;28;20136;-94
2022/07/19 06:25:45;;;;;;;6.25;5.75;;;;;;;;;;5028485;28;20021;-93
2022/07/19 06:28:11;;;;;;;8.50;6.38;;;;;;;;;;5029734;28;20515;-93
2022/07/19 06:30:37;;;;;;;9.55;5.38;;;;;;;;;;5030430;28;20030;-93
2022/07/19 06:33:03;;;;;;;9.20;5.72;;;;;;;;;;5027499;28;20018;-91
2022/07/19 06:35:29;;;;;;;6.50;5.90;;;;;;;;;;5010336;28;20022;-94
2022/07/19 06:37:55;;;;;;;22.85;6.07;;;;;;;;;;5028620;28;20029;-95
2022/07/19 06:40:21;;;;;;;6.38;5.70;;;;;;;;;;5025972;28;20083;-92
2022/07/19 06:42:47;;;;;;;22.30;5.93;;;;;;;;;;5027090;28;20049;-94
2022/07/19 06:45:13;;;;;;;5.25;4.75;;;;;;;;;;5017068;28;20092;-91
2022/07/19 06:47:39;;;;;;;8.52;5.43;;;;;;;;;;5030404;28;20018;-94
2022/07/19 06:50:06;;;;;;;6.40;4.23;;;;;;;;;;5012059;28;20029;-88
2022/07/19 06:52:31;;;;;;;4.57;4.18;;;;;;;;;;5024348;28;20041;-91
2022/07/19 06:54:57;;;;;;;17.67;5.05;;;;;;;;;;5025674;28;20026;-90
2022/07/19 06:57:23;;;;;;;8.77;5.40;;;;;;;;;;5018041;28;20045;-90
2022/07/19 06:59:49;;;;;;;7.70;4.15;;;;;;;;;;5030689;28;20033;-90
2022/07/19 07:02:15;;;;;;;6.05;4.60;;;;;;;;;;5033569;28;20041;-90
2022/07/19 07:04:41;;;;;;;11.27;5.05;;;;;;;;;;5021406;28;20175;-90
2022/07/19 07:07:07;;;;;;;11.57;6.97;;;;;;;;;;5005122;28;20022;-89
2022/07/19 07:09:33;;;;;;;5.80;4.60;;;;;;;;;;5020561;28;20021;-91
2022/07/19 07:11:59;;;;;;;9.15;4.13;;;;;;;;;;4997990;28;20018;-90
2022/07/19 07:14:25;;;;;;;7.75;4.35;;;;;;;;;;5003479;28;20563;-91
2022/07/19 07:16:51;;;;;;;11.23;3.80;;;;;;;;;;5015364;28;20079;-90
2022/07/19 07:19:17;;;;;;;3.42;3.13;;;;;;;;;;5018703;28;20130;-93
2022/07/19 07:21:44;;;;;;;10.48;4.22;;;;;;;;;;5020319;28;20052;-86
2022/07/19 07:24:10;;;;;;;5.20;4.22;;;;;;;;;;5023756;28;20446;-87
2022/07/19 07:26:36;;;;;;;4.70;2.35;;;;;;;;;;5029662;28;20033;-86
2022/07/19 07:29:02;;;;;;;8.77;3.42;;;;;;;;;;5029453;28;20137;-88
2022/07/19 07:31:28;;;;;;;6.18;2.28;;;;;;;;;;5011299;28;20030;-86
2022/07/19 07:33:54;;;;;;;6.82;2.88;;;;;;;;;;5022481;28;20025;-86
2022/07/19 07:36:20;;;;;;;4.15;2.90;;;;;;;;;;5021453;28;20034;-87
2022/07/19 07:38:46;;;;;;;3.30;3.00;;;;;;;;;;5029750;28;20109;-88
2022/07/19 07:41:12;;;;;;;4.13;2.60;;;;;;;;;;5019910;28;20029;-90
2022/07/19 07:43:38;;;;;;;8.75;3.65;;;;;;;;;;5022479;28;20022;-89
2022/07/19 07:46:04;;;;;;;3.55;2.75;;;;;;;;;;5030541;28;20423;-86
2022/07/19 07:48:30;;;;;;;7.80;2.40;;;;;;;;;;5029481;28;20022;-92
2022/07/19 07:50:56;;;;;;;6.78;3.05;;;;;;;;;;5025885;28;20349;-90
2022/07/19 07:53:22;;;;;;;6.20;3.13;;;;;;;;;;5031717;28;20112;-91
2022/07/19 07:55:48;;;;;;;7.63;3.83;;;;;;;;;;5006890;28;20117;-91
2022/07/19 07:58:14;;;;;;;3.92;2.67;;;;;;;;;;5030293;28;20021;-85
2022/07/19 08:00:40;;;;;;;5.97;3.30;;;33.60;43.00;;;;;;5024915;28;20064;-88
2022/07/19 08:03:07;;;;;;;6.30;2.13;;;;;;;;;;5022792;28;20533;-87
2022/07/19 08:05:33;;;;;;;5.63;2.40;;;;;;;;;;5021613;28;20491;-88
2022/07/19 08:07:59;;;;;;;6.47;2.22;;;37.00;40.50;;;;;;5020222;28;20022;-86
2022/07/19 08:10:27;;;;;;;3.83;2.10;;;37.60;39.90;;;;;;5019064;28;20605;-86
2022/07/19 08:12:53;;;;;;;2.90;2.13;;;;;;;;;;5006264;28;20519;-86
2022/07/19 08:15:20;;;;;;;8.30;2.20;;;39.10;37.70;;;;;;5026030;28;20029;-87
2022/07/19 08:17:46;;;;;;;5.78;1.90;;;;;;;;;;5025108;28;20507;-87
2022/07/19 08:20:12;;;;;;;2.45;2.22;;;;;;;;;;5024908;28;20045;-87
2022/07/19 08:22:39;;;;;;;4.15;2.13;;;;;;;;;;5026036;28;20400;-88
2022/07/19 08:25:05;;;;;;;3.47;2.08;;;;;;;;;;5027931;28;20034;-88
2022/07/19 08:27:33;;;;;;;4.07;2.03;;;;;;;;;;5020032;28;20029;-87
2022/07/19 08:29:59;;;;;;;5.38;2.55;;;;;;;;;;5029139;28;20030;-87
2022/07/19 08:32:25;;;;;;;5.80;2.58;;;;;;;;;;5020646;28;20018;-87
2022/07/19 08:34:51;;;;;;;3.88;2.15;;;;;;;;;;5034812;28;20037;-87
2022/07/19 08:37:17;;;;;;;10.38;2.78;;;;;;;;;;5027374;28;20054;-86
2022/07/19 08:39:43;;;;;;;3.10;2.33;;;;;;;;;;5028807;28;20033;-86
2022/07/19 08:42:10;;;;;;;6.25;3.20;;;38.40;35.90;;;;;;5023360;28;20014;-86
2022/07/19 08:44:38;;;;;;;11.45;2.28;;;38.30;35.60;;;;;;5027289;28;20124;-88
2022/07/19 08:47:05;;;;;;;7.47;2.45;;;;;;;;;;5026942;28;20018;-88
2022/07/19 08:49:31;;;;;;;2.28;2.08;;;;;;;;;;5027894;28;20033;-87
2022/07/19 08:51:57;;;;;;;3.63;2.55;;;;;;;;;;5022131;28;20036;-88
2022/07/19 08:54:23;;;;;;;7.32;2.33;;;;;;;;;;5024722;28;20061;-88
2022/07/19 08:59:33;;;;;;;4.00;2.53;;;;;;;;;;5028568;28;19912;-86
2022/07/19 09:01:59;;;;;;;3.17;2.47;;;;;;;;;;5028268;28;20052;-86
2022/07/19 09:04:25;;;;;;;;;;;39.50;34.30;;;;;;5007117;28;20385;-88
2022/07/19 09:06:55;;;;;;;2.78;2.08;;;40.60;33.60;;;;;;5024105;28;19916;-87
2022/07/19 09:09:27;;;;;;;3.10;2.22;;;41.00;32.20;;;;;;5025738;28;20032;-88
2022/07/19 09:11:55;;;;;;;4.30;2.08;;;41.30;31.60;;;;;;5024188;28;20040;-89
2022/07/19 09:14:29;;;;;;;2.75;2.25;;;40.90;31.70;;;;;;4997027;28;20030;-87
2022/07/19 09:16:55;;;;;;;2.88;2.00;;;;;;;;;;5019307;28;20025;-88
2022/07/19 09:19:21;;;;;;;;;;;40.50;31.90;;;;;;5018071;28;20100;-88
2022/07/19 09:22:02;;;;;;;3.25;2.40;;;39.70;43.50;;;;;;4995720;28;19921;-87
2022/07/19 09:24:30;;;;;;;5.82;1.98;;;40.50;32.00;;;;;;5021577;28;20064;-87
2022/07/19 09:27:07;;;;;;;2.53;1.98;;;41.00;31.20;;;;;;5022068;28;20032;-85
2022/07/19 09:29:34;;;;;;;4.63;2.05;;;;;;;;;;5021302;28;20029;-87
2022/07/19 09:32:17;;;;;;;4.07;1.98;;;41.60;30.70;;;;;;5028046;28;20079;-87
2022/07/19 09:34:55;;;;;;;3.50;1.92;;;42.40;30.40;;;;;;5022688;28;20095;-87
2022/07/19 09:37:23;;;;;;;6.28;3.72;;;43.00;29.80;;;;;;5010126;28;20083;-86
2022/07/19 09:39:51;;;;;;;3.03;2.03;;;43.00;29.80;;;;;;5012118;28;20037;-85
2022/07/19 09:42:26;;;;;;;4.30;1.75;;;43.00;29.60;;;;;;5005774;28;20028;-90
2022/07/19 09:45:04;;;;;;;2.63;2.43;;;43.20;29.50;;;;;;5030166;28;20056;-85
2022/07/19 09:47:36;;;;;;;3.22;1.80;;;;;;;;;;5031568;28;20029;-87
2022/07/19 09:50:06;;;;;;;2.80;1.95;;;42.60;29.90;;;;;;5023611;28;20045;-87
2022/07/19 09:52:34;;;;;;;6.03;1.95;;;42.40;29.80;;;;;;5021923;28;20025;-87
2022/07/19 09:55:03;;;;;;;6.00;1.90;;;43.10;29.70;;;;;;5026586;28;20049;-87
2022/07/19 09:57:30;;;;;;;2.72;2.17;;;43.00;29.80;;;;;;5031465;28;20041;-89
2022/07/19 09:59:58;;;;;;;3.70;1.83;;;43.40;29.60;;;;;;5011362;28;20033;-87
2022/07/19 10:02:25;;;;;;;2.47;1.92;;;;;;;;;;5027086;28;20029;-87
2022/07/19 10:04:51;;;;;;;3.60;2.25;;;;;;;;;;5027138;28;20030;-87
2022/07/19 10:07:17;;;;;;;;;;;43.90;29.20;;;;;;5030779;28;20100;-86
2022/07/19 10:09:44;;;;;;;1.83;1.73;;;44.30;29.00;;;;;;5028716;28;19985;-87
2022/07/19 10:12:11;;;;;;;2.53;2.28;;;;;;;;;;5028328;28;20013;-87
2022/07/19 10:14:37;;;;;;;2.50;2.20;;;;;;;;;;5025288;28;20036;-87
2022/07/19 10:17:08;;;;;;;;;;;43.40;28.50;;;;;;5029315;28;20021;-87
2022/07/19 10:19:34;;;;;;;6.75;1.90;;;;;;;;;;5032076;28;20434;-89
2022/07/19 10:22:00;;;;;;;;;;;42.60;28.50;;;;;;5032635;28;20045;-89
2022/07/19 10:24:47;;;;;;;2.22;1.55;;;42.20;28.80;;;;;;5027684;28;19939;-88
2022/07/19 10:27:17;;;;;;;8.13;2.20;;;42.20;28.90;;;;;;5024929;28;20475;-90
2022/07/19 10:29:43;;;;;;;2.22;1.88;;;;;;;;;;5019183;28;20083;-89
2022/07/19 10:32:11;;;;;;;4.15;1.50;;;42.50;28.10;;;;;;5023251;28;20021;-88
2022/07/19 10:34:38;;;;;;;6.50;1.65;;;;;;;;;;5012307;28;20044;-90
2022/07/19 10:37:04;;;;;;;5.20;1.77;;;;;;;;;;5034533;28;20021;-89
2022/07/19 10:39:33;;;;;;;;;;;42.20;28.50;;;;;;5025826;28;20506;-90
2022/07/19 10:42:20;;;;;;;1.80;1.40;;;42.50;28.60;;;;;;5023730;28;19963;-89
2022/07/19 10:44:55;;;;;;;3.50;1.65;;;42.20;42.80;;;;;;5027992;28;20450;-88
2022/07/19 10:47:37;;;;;;;4.00;1.85;;;42.70;27.70;;;;;;5029579;28;20101;-90
2022/07/19 10:50:07;;;;;;;1.63;1.40;;;43.00;27.70;;;;;;5026022;28;20025;-90
2022/07/19 10:52:35;;;;;;;3.95;1.60;;;43.00;27.70;;;;;;5006900;28;20036;-89
2022/07/19 10:55:20;;;;;;;1.80;1.63;;;43.40;44.30;;;;;;5024549;28;20459;-88
2022/07/19 10:58:08;;;;;;;2.17;1.67;;;42.60;27.30;;;;;;5024713;28;20113;-90
2022/07/19 11:00:44;;;;;;;3.13;1.52;;;41.80;27.30;;;;;;5020025;28;20054;-90
2022/07/19 11:03:22;;;;;;;1.98;1.10;;;41.20;27.70;;;;;;5026514;28;20033;-89
2022/07/19 11:05:50;;;;;;;2.80;1.60;;;40.50;28.30;;;;;;5026610;28;20026;-91
2022/07/19 11:08:16;;;;;;;3.40;1.60;;;;;;;;;;5028420;28;20024;-87
2022/07/19 11:10:41;;;;;;;;;;;40.10;28.70;;;;;;5011427;28;20494;-88
2022/07/19 11:13:08;;;;;;;5.97;1.25;;;;;;;;;;5029736;28;19984;-88
2022/07/19 11:15:33;;;;;;;;;;;39.20;29.20;;;;;;5021091;28;20373;-88
2022/07/19 11:18:01;;;;;;;2.95;1.88;;;;;;;;;;5008096;28;19912;-88
2022/07/19 11:20:29;;;;;;;1.65;1.08;;;38.70;28.60;;;;;;5010009;28;20637;-88
2022/07/19 11:22:56;;;;;;;1.50;1.08;;;38.30;29.30;;;;;;5003019;28;20104;-90
2022/07/19 11:25:33;;;;;;;2.70;1.30;;;;;;;;;;5030401;28;20046;-87
2022/07/19 11:27:59;;;;;;;1.83;1.27;;;37.90;29.70;;;;;;5019413;28;20018;-89
2022/07/19 11:30:27;;;;;;;1.58;1.08;;;;;;;;;;5030203;28;20025;-88
2022/07/19 11:32:56;;;;;;;3.83;1.42;;;37.40;30.00;;;;;;5022465;28;20490;-87
2022/07/19 11:35:23;;;;;;;2.65;1.58;;;;;;;;;;5024219;28;20079;-88
2022/07/19 11:37:49;;;;;;;2.90;1.40;;;;;;;;;;5013300;28;20021;-88
2022/07/19 11:40:15;;;;;;;3.33;1.40;;;;;;;;;;5012564;28;20036;-88
2022/07/19 11:42:46;;;;;;;4.75;1.80;;;36.90;29.80;;;;;;5025671;28;20069;-88
2022/07/19 11:45:25;;;;;;;4.20;2.17;;;36.80;30.10;;;;;;5027603;28;20037;-89
2022/07/19 11:47:56;;;;;;;1.67;1.38;;;;;;;;;;5005719;28;20032;-90
2022/07/19 11:50:23;;;;;;;4.10;2.05;;;;;;;;;;5022726;28;20036;-89
2022/07/19 11:52:54;;;;;;;5.20;1.55;;;;;;;;;;5021793;28;20028;-91
2022/07/19 11:55:26;;;;;;;2.28;2.03;;;35.10;30.00;;;;;;5018566;28;20030;-91
2022/07/19 11:57:53;;;;;;;3.83;1.60;;;;;;;;;;5020628;28;20124;-89
2022/07/19 12:00:20;;;;;;;3.22;1.55;;;36.30;31.00;;;;;;5013725;28;20022;-87
2022/07/19 12:02:52;;;;;;;;;;;36.20;31.20;;;;;;5016084;28;20036;-88
2022/07/19 12:05:18;;;;;;;4.78;1.45;;;;;;;;;;5025597;28;19913;-89
2022/07/19 12:07:48;;;;;;;2.72;2.53;;;;;;;;;;5019273;28;20148;-89
2022/07/19 12:10:40;;;;;;;2.17;1.67;;;36.00;31.40;;;;;;5020098;28;20104;-87
2022/07/19 12:13:08;;;;;;;3.15;1.75;;;;;;;;;;5020725;28;20061;-88
2022/07/19 12:15:54;;;;;;;3.58;1.65;;;35.80;31.50;;;;;;5022421;28;20534;-88
2022/07/19 12:18:22;;;;;;;4.50;1.67;;;35.80;32.00;;;;;;5021795;28;20025;-90
2022/07/19 12:21:17;;;;;;;2.78;1.65;;;36.10;41.80;;;;;;5029981;28;20496;-90
2022/07/19 12:23:43;;;;;;;3.20;1.73;;;;;;;;;;5027607;28;20056;-87
2022/07/19 12:26:10;;;;;;;2.80;1.63;;;;;;;;;;5001568;28;20014;-87
2022/07/19 12:28:36;;;;;;;;;;;;;;;;;;5003931;28;20045;-89
2022/07/19 12:31:05;;;;;;;4.63;3.17;;;;;;;;;;5023039;28;20343;-87
2022/07/19 12:33:32;;;;;;;2.60;1.55;;;;;;;;;;5028931;28;20033;-91
2022/07/19 12:35:58;;;;;;;2.42;1.65;;;;;;;;;;5026113;28;20071;-88
2022/07/19 12:38:31;;;;;;;12.35;2.05;;;35.40;32.60;;;;;;5029888;28;20120;-89
2022/07/19 12:41:06;;;;;;;2.97;2.08;;;35.30;32.60;;;;;;5017066;28;20514;-89
2022/07/19 12:43:32;;;;;;;7.47;2.42;;;;;;;;;;5027588;28;20419;-87
2022/07/19 12:46:03;;;;;;;6.97;1.92;;;;;;;;;;5021370;28;20040;-88
2022/07/19 12:48:29;;;;;;;2.05;1.80;;;;;;;;;;5027238;28;20029;-89
2022/07/19 12:50:55;;;;;;;2.63;2.03;;;35.10;32.60;;;;;;5022388;28;20030;-90
2022/07/19 12:53:22;;;;;;;5.28;1.80;;;;;;;;;;5011416;28;20121;-92
2022/07/19 12:55:48;;;;;;;3.97;2.75;;;35.10;32.50;;;;;;5015312;28;20057;-90
2022/07/19 13:01:01;;;;;;;2.88;2.17;;;;;;;;;;5026341;28;19920;-89
2022/07/19 13:03:27;;;;;;;4.60;1.90;;;;;;;;;;4997747;28;20038;-89
2022/07/19 13:05:53;;;;;;;3.58;1.85;;;;;;;;;;5020742;28;20029;-87
2022/07/19 13:08:19;;;;;;;2.53;1.58;;;;;;;;;;5001788;28;20396;-88
2022/07/19 13:10:45;;;;;;;2.58;1.92;;;;;;;;;;5021427;28;20026;-90
2022/07/19 13:13:11;;;;;;;3.13;2.00;;;;;;;;;;5014510;28;20124;-89
2022/07/19 13:15:37;;;;;;;4.25;1.80;;;;;;;;;;5029659;28;20095;-88
2022/07/19 13:18:03;;;;;;;5.10;2.20;;;;;;;;;;5012855;28;20026;-89
2022/07/19 13:20:29;;;;;;;2.88;2.17;;;;;;;;;;5027222;28;20099;-89
2022/07/19 13:22:55;;;;;;;1.85;1.65;;;;;;;;;;5003093;28;20040;-88
2022/07/19 13:25:21;;;;;;;2.28;2.08;;;;;;;;;;5026206;28;20029;-88
2022/07/19 13:27:47;;;;;;;2.97;2.33;;;;;;;;;;5032350;28;20036;-92
2022/07/19 13:30:13;;;;;;;5.78;1.98;;;;;;;;;;5025597;28;20862;-92
2022/07/19 13:32:40;;;;;;;2.45;2.08;;;;;;;;;;5016138;28;20037;-89
2022/07/19 13:35:06;;;;;;;4.53;2.50;;;;;;;;;;5016370;28;20025;-93
2022/07/19 13:37:32;;;;;;;2.63;2.33;;;;;;;;;;5028546;28;20422;-93
2022/07/19 13:39:58;;;;;;;2.65;1.40;;;;;;;;;;5024059;28;20492;-93
2022/07/19 13:42:24;;;;;;;2.70;2.03;;;;;;;;;;5011076;28;20025;-93
2022/07/19 13:44:50;;;;;;;2.22;1.90;;;;;;;;;;5017077;28;20034;-95
2022/07/19 13:47:16;;;;;;;2.42;2.17;;;;;;;;;;5013507;28;20024;-93
2022/07/19 13:49:43;;;;;;;2.35;1.92;;;34.50;32.30;;;;;;5017565;28;20034;-94
2022/07/19 13:52:09;;;;;;;6.65;2.03;;;;;;;;;;5030108;28;20022;-95
2022/07/19 13:54:35;;;;;;;9.77;2.75;;;;;;;;;;5026745;28;20022;-95
2022/07/19 13:57:01;;;;;;;4.23;3.10;;;;;;;;;;5001627;28;20044;-92
2022/07/19 13:59:30;;;;;;;7.40;2.40;;;;;;;;;;5008627;28;20269;-93
2022/07/19 14:01:56;;;;;;;5.68;2.45;;;;;;;;;;5032641;28;20033;-93
2022/07/19 14:04:22;;;;;;;10.20;2.63;;;;;;;;;;5021798;28;20046;-93
2022/07/19 14:06:48;;;;;;;2.17;1.98;;;;;;;;;;5016893;28;20025;-93
2022/07/19 14:09:14;;;;;;;2.92;2.30;;;;;;;;;;5033585;28;20029;-93
2022/07/19 14:11:40;;;;;;;3.33;1.83;;;;;;;;;;5021425;28;20479;-92
2022/07/19 14:14:06;;;;;;;3.27;2.13;;;;;;;;;;5021103;28;20284;-93
2022/07/19 14:16:32;;;;;;;2.25;2.05;;;;;;;;;;5004673;28;20881;-93
2022/07/19 14:18:58;;;;;;;2.95;2.08;;;;;;;;;;5034278;28;20112;-92
2022/07/19 14:21:24;;;;;;;18.03;2.37;;;;;;;;;;5008138;28;20053;-92
2022/07/19 14:23:50;;;;;;;3.55;2.40;;;;;;;;;;4998265;28;20296;-92